Portada
METAR-TAF:

METAR-TAF

Aeroports :

Nouméa La Tontouta, Nova Caledònia

latitud: 22-01S, longitud: 166-13E, altitud: 16 m

Observació

L'informe es va fer fa 20 minuts, a les 08:00 UTC
Vent 10 kt del Nord-Est, variant entre Nord i Est
Temperatura 26°C
Humitat 58%
Pressió 1015 hPa
Visibilitat 10 km o més
sense núvols per sota de 1500 mi sense presència de cumulonimbus.

METAR: NWWW 280800Z AUTO 04010KT 360V080 CAVOK 26/17 Q1015 NOSIG

Hora: 19:20 (08:20 UTC)

Pronòstic

L'informe es va fer fa 3 hores i 20 minuts, a les 05:00 UTC
Pronòstic vàlid del 28 a les 06 UTC al 29 a les 06 UTC
Vent 10 kt del Nord-Est
Visibilitat 10 km o més
Escasses núvols a una alçada de 4500 ft
Núvols disperses a una alçada de 6500 ft
Evolucionant progressivament
l' 28 a les 22 UTC al 28 a les 24 UTC
Vent 10 kt del Sud/Sud-Oest

TAF: NWWW 280500Z 2806/2906 05010KT 9999 FEW045 SCT065 BECMG 2822/2824 20010KT

Observacions i pronòstics meteorològics de més de 4000 aeroports (METAR i TAF).

Les estacions disponibles són els punts grocs i vermells al mapa.

Posi el ratolí al punt desitjat per veure el nom de l'estació.

Feu clic per veure les observacions i els pronòstics meteorològics.

Per canviar el mapa: feu clic els botons verds amb una creu de color negre per apropar; al botó verd amb un guió per allunyar la imatge; o en les fletxes verdes per a mapes adjacents.


METAR-TAF: